Time;durP1;ratioP1;P1;durP2;ratioP2;P2;SDS_P1;SDS_P2;PMS_P1;PMS_P2;Temp;Humidity;BMP_temperature;BMP_pressure;BME280_temperature;BME280_humidity;BME280_pressure;Samples;Min_cycle;Max_cycle;Signal;HPM_P1;HPM_P2
2023/09/10 00:00:30;;;;;;;43.30;20.98;;;;;;;16.36;58.07;101777.66;5023727;28;20125;-68
2023/09/10 00:02:55;;;;;;;47.65;21.23;;;;;;;16.37;57.61;101774.91;5024741;28;20045;-68
2023/09/10 00:05:21;;;;;;;51.35;21.80;;;;;;;16.44;57.58;101770.19;5007628;28;20025;-68
2023/09/10 00:07:46;;;;;;;51.35;23.75;;;;;;;16.32;57.69;101774.28;5024215;28;20521;-68
2023/09/10 00:10:12;;;;;;;46.88;22.15;;;;;;;16.30;57.96;101780.59;5039482;28;20037;-68
2023/09/10 00:12:37;;;;;;;47.97;22.35;;;;;;;16.37;57.88;101774.91;5038008;28;20047;-69
2023/09/10 00:15:04;;;;;;;53.30;21.33;;;;;;;16.40;58.02;101777.41;5036209;28;20478;-69
2023/09/10 00:17:30;;;;;;;58.80;23.45;;;;;;;16.33;57.87;101773.38;5036417;28;20041;-68
2023/09/10 00:19:55;;;;;;;54.00;23.73;;;;;;;16.36;57.57;101773.22;5037500;28;20029;-68
2023/09/10 00:22:21;;;;;;;43.83;21.35;;;;;;;16.39;58.19;101770.41;5018964;28;20100;-68
2023/09/10 00:24:46;;;;;;;49.60;21.52;;;;;;;16.51;58.01;101768.09;5022185;28;20537;-69
2023/09/10 00:27:13;;;;;;;49.10;22.05;;;;;;;16.38;57.48;101759.97;5024180;28;20753;-74
2023/09/10 00:29:39;;;;;;;52.70;21.63;;;;;;;16.39;57.45;101762.50;5022950;28;20029;-73
2023/09/10 00:32:04;;;;;;;45.33;19.80;;;;;;;16.38;57.96;101760.81;5029551;28;20028;-72
2023/09/10 00:34:31;;;;;;;46.03;20.50;;;;;;;16.44;57.44;101769.34;5028537;28;20087;-73
2023/09/10 00:36:57;;;;;;;40.42;20.77;;;;;;;16.49;57.20;101762.03;5027186;28;20083;-75
2023/09/10 00:39:22;;;;;;;41.92;20.10;;;;;;;16.33;57.36;101757.56;5027759;28;20053;-75
2023/09/10 00:41:48;;;;;;;47.35;22.20;;;;;;;16.33;57.17;101762.84;5020542;28;20212;-74
2023/09/10 00:44:14;;;;;;;48.00;21.85;;;;;;;16.29;57.40;101770.97;5011808;28;20461;-74
2023/09/10 00:46:40;;;;;;;49.88;22.95;;;;;;;16.24;57.24;101771.19;5026526;28;20044;-74
2023/09/10 00:49:05;;;;;;;53.20;22.63;;;;;;;16.09;58.05;101772.81;5026915;28;20045;-74
2023/09/10 00:51:31;;;;;;;57.65;23.75;;;;;;;16.22;57.96;101775.69;5025590;28;20041;-74
2023/09/10 00:53:58;;;;;;;59.78;24.08;;;;;;;16.24;57.61;101773.81;5021386;28;20113;-69
2023/09/10 00:56:24;;;;;;;55.42;24.20;;;;;;;16.14;57.71;101780.50;5023728;28;20045;-70
2023/09/10 00:58:51;;;;;;;71.40;24.08;;;;;;;15.99;58.45;101774.16;5021687;28;20048;-69
2023/09/10 01:01:17;;;;;;;53.70;22.02;;;;;;;16.09;58.28;101774.59;5024700;28;20037;-70
2023/09/10 01:03:43;;;;;;;70.57;25.35;;;;;;;16.16;57.82;101781.28;5035921;28;20044;-70
2023/09/10 01:06:09;;;;;;;65.93;25.20;;;;;;;16.27;58.22;101778.13;5027982;28;20060;-69
2023/09/10 01:08:35;;;;;;;61.70;25.15;;;;;;;16.35;57.86;101779.44;5021650;28;20092;-69
2023/09/10 01:11:08;;;;;;;56.78;24.27;;;;;;;16.28;58.27;101779.81;5028088;28;21408;-69
2023/09/10 01:14:04;;;;;;;61.55;26.17;;;;;;;16.37;58.24;101780.19;5040867;28;20148;-69
2023/09/10 01:16:53;;;;;;;59.60;25.13;;;;;;;16.39;58.04;101778.31;5023216;28;20159;-71
2023/09/10 01:19:42;;;;;;;75.60;26.00;;;;;;;16.52;57.94;101785.63;5003688;28;20404;-69
2023/09/10 01:22:39;;;;;;;55.95;24.98;;;;;;;16.54;58.09;101775.84;5027397;28;20034;-68
2023/09/10 01:25:06;;;;;;;59.95;25.50;;;;;;;16.56;58.11;101779.28;5019962;28;20450;-68
2023/09/10 01:27:31;;;;;;;59.35;26.70;;;;;;;16.56;58.08;101788.03;5038161;28;20156;-68
2023/09/10 01:29:57;;;;;;;65.53;25.50;;;;;;;16.65;58.07;101776.16;5018032;28;20027;-68
2023/09/10 01:32:37;;;;;;;61.65;26.17;;;;;;;16.72;57.82;101780.19;5026196;28;20037;-68
2023/09/10 01:35:25;;;;;;;66.43;27.13;;;;;;;16.72;57.58;101774.91;5018792;28;20029;-68
2023/09/10 01:37:59;;;;;;;67.63;26.98;;;;;;;16.63;57.44;101778.03;5018982;28;20193;-67
2023/09/10 01:40:31;;;;;;;83.80;27.92;;;;;;;16.43;58.29;101773.75;5023438;28;20044;-67
2023/09/10 01:42:57;;;;;;;59.60;26.92;;;;;;;16.47;58.43;101770.03;5025282;28;20076;-70
2023/09/10 01:45:23;;;;;;;68.07;29.05;;;;;;;16.39;58.36;101766.94;5020931;28;20112;-69
2023/09/10 01:47:49;;;;;;;63.40;26.25;;;;;;;16.35;58.67;101771.53;5020323;28;20140;-69
2023/09/10 01:50:15;;;;;;;72.80;27.67;;;;;;;16.31;58.91;101769.97;5021729;28;20532;-68
2023/09/10 01:52:40;;;;;;;72.88;29.83;;;;;;;16.27;58.79;101772.84;5019213;28;20038;-67
2023/09/10 01:55:06;;;;;;;56.42;25.83;;;;;;;16.36;59.65;101765.31;5018873;28;20482;-67
2023/09/10 01:57:32;;;;;;;64.85;28.42;;;;;;;16.40;59.22;101772.13;5034813;28;20151;-69
2023/09/10 01:59:58;;;;;;;75.43;28.67;;;;;;;16.57;58.29;101773.06;5016418;28;20036;-68
2023/09/10 02:02:23;;;;;;;75.07;28.80;;;;;;;16.63;58.14;101765.69;5021442;28;20036;-68
2023/09/10 02:04:49;;;;;;;68.03;26.88;;;;;;;16.71;58.17;101775.84;5023347;28;20032;-69
2023/09/10 02:07:15;;;;;;;62.63;26.75;;;;;;;16.77;57.98;101775.53;5004836;28;20616;-70
2023/09/10 02:09:41;;;;;;;60.47;24.67;;;;;;;16.89;58.08;101775.84;5035891;28;20036;-69
2023/09/10 02:12:06;;;;;;;64.03;26.65;;;;;;;16.97;57.63;101781.56;5024084;28;20033;-69
2023/09/10 02:14:32;;;;;;;58.13;24.92;;;;;;;17.03;56.99;101778.63;5036907;28;20052;-69
2023/09/10 02:16:57;;;;;;;59.88;23.52;;;;;;;17.04;57.05;101782.94;5001476;28;20257;-69
2023/09/10 02:19:23;;;;;;;55.72;24.42;;;;;;;17.02;57.17;101776.88;5019744;28;20612;-67
2023/09/10 02:21:50;;;;;;;58.42;24.98;;;;;;;16.98;56.47;101776.22;5017573;28;20036;-66
2023/09/10 02:24:15;;;;;;;60.83;25.67;;;;;;;16.95;56.85;101776.38;5023482;28;20901;-66
2023/09/10 02:26:40;;;;;;;53.38;24.70;;;;;;;16.97;56.77;101773.66;5038310;28;20301;-67
2023/09/10 02:29:06;;;;;;;60.08;24.90;;;;;;;16.81;56.69;101776.25;5020649;28;20060;-67
2023/09/10 02:31:31;;;;;;;56.50;22.98;;;;;;;16.67;57.21;101776.94;5021909;28;20060;-68
2023/09/10 02:34:00;;;;;;;56.75;24.90;;;;;;;16.63;57.46;101780.66;5024153;28;20094;-71
2023/09/10 02:36:27;;;;;;;55.65;24.92;;;;;;;16.64;57.87;101774.44;5020932;28;20059;-71
2023/09/10 02:38:53;;;;;;;58.83;25.83;;;;;;;16.69;57.70;101775.06;5002072;28;20184;-71
2023/09/10 02:41:18;;;;;;;60.45;26.88;;;;;;;16.75;57.62;101782.69;5023503;28;20468;-71
2023/09/10 02:43:44;;;;;;;57.55;24.05;;;;;;;16.85;57.40;101785.72;5023195;28;20076;-71
2023/09/10 02:46:09;;;;;;;61.30;27.70;;;;;;;16.82;57.17;101781.47;5024964;28;20456;-71
2023/09/10 02:48:35;;;;;;;62.25;27.90;;;;;;;16.86;57.00;101781.28;5017770;28;20053;-71
2023/09/10 02:51:00;;;;;;;60.22;26.75;;;;;;;16.74;57.14;101783.59;5018363;28;21064;-71
2023/09/10 02:53:26;;;;;;;58.10;24.20;;;;;;;16.79;57.61;101784.25;5000857;28;20053;-71
2023/09/10 02:56:02;;;;;;;54.40;24.63;;;;;;;16.88;57.51;101784.69;5018776;28;20032;-71
2023/09/10 02:58:27;;;;;;;52.05;23.42;;;;;;;16.89;57.63;101789.03;5019029;28;20056;-71
2023/09/10 03:00:53;;;;;;;69.57;27.33;;;;;;;16.85;56.71;101792.78;5019119;28;20174;-71
2023/09/10 03:03:19;;;;;;;62.65;25.13;;;;;;;16.81;57.46;101785.00;5019464;28;20513;-70
2023/09/10 03:05:46;;;;;;;61.88;26.13;;;;;;;16.77;57.18;101788.75;5023300;28;20018;-71
2023/09/10 03:08:11;;;;;;;63.92;25.85;;;;;;;16.75;57.36;101787.97;5038439;28;20067;-71
2023/09/10 03:10:37;;;;;;;65.40;29.00;;;;;;;16.70;57.09;101787.31;5024830;28;20037;-70
2023/09/10 03:13:04;;;;;;;67.40;26.83;;;;;;;16.73;57.44;101792.47;5034356;28;20048;-70
2023/09/10 03:15:29;;;;;;;56.40;24.27;;;;;;;16.72;57.16;101796.03;5039847;28;20035;-70
2023/09/10 03:17:56;;;;;;;101.00;28.25;;;;;;;16.67;56.97;101786.66;4998326;28;20037;-70
2023/09/10 03:20:21;;;;;;;57.63;22.77;;;;;;;16.53;57.96;101790.84;5021946;28;20064;-67
2023/09/10 03:22:47;;;;;;;57.58;25.80;;;;;;;16.60;57.92;101788.75;5036674;28;20041;-67
2023/09/10 03:25:12;;;;;;;65.80;25.58;;;;;;;16.70;57.65;101787.31;5021883;28;20029;-67
2023/09/10 03:27:38;;;;;;;59.45;25.35;;;;;;;16.72;57.70;101785.47;5026649;28;20045;-67
2023/09/10 03:30:05;;;;;;;59.40;25.67;;;;;;;16.73;57.56;101789.81;5021516;28;20969;-67
2023/09/10 03:32:31;;;;;;;70.88;27.27;;;;;;;16.69;56.92;101790.91;5026400;28;20049;-67
2023/09/10 03:34:57;;;;;;;68.70;26.70;;;;;;;16.50;57.54;101785.72;5018698;28;20104;-69
2023/09/10 03:37:22;;;;;;;63.40;25.35;;;;;;;16.51;58.41;101792.72;4987973;28;1107304;-65
2023/09/10 03:39:48;;;;;;;60.33;25.15;;;;;;;16.49;58.21;101789.28;5012689;28;20037;-70
2023/09/10 03:42:16;;;;;;;63.38;27.15;;;;;;;16.52;57.98;101785.63;5026923;28;20091;-65
2023/09/10 03:44:42;;;;;;;66.03;25.92;;;;;;;16.51;57.92;101786.56;5013977;28;20055;-66
2023/09/10 03:47:08;;;;;;;59.05;24.08;;;;;;;16.55;57.94;101788.09;5021620;28;20029;-65
2023/09/10 03:49:34;;;;;;;57.00;23.85;;;;;;;16.55;58.17;101788.09;5023383;28;20037;-65
2023/09/10 03:52:00;;;;;;;57.40;24.10;;;;;;;16.52;57.84;101788.28;5023188;28;20060;-66
2023/09/10 03:54:25;;;;;;;57.10;22.98;;;;;;;16.46;57.68;101788.56;5023827;28;20071;-66
2023/09/10 03:56:51;;;;;;;54.13;23.15;;;;;;;16.38;57.84;101781.91;5021492;28;20099;-65
2023/09/10 03:59:18;;;;;;;60.80;23.98;;;;;;;16.32;57.83;101782.22;5024994;28;20104;-65
2023/09/10 04:01:44;;;;;;;59.85;22.15;;;;;;;16.27;58.47;101780.75;5039300;28;20086;-68
2023/09/10 04:04:09;;;;;;;60.35;23.10;;;;;;;16.25;58.22;101783.44;5020108;28;20052;-67
2023/09/10 04:06:34;;;;;;;53.67;22.38;;;;;;;16.24;58.27;101781.72;5036985;28;20099;-65
2023/09/10 04:09:00;;;;;;;60.75;25.35;;;;;;;16.10;57.53;101784.22;5021512;28;20076;-68
2023/09/10 04:11:26;;;;;;;75.72;26.48;;;;;;;15.94;58.43;101784.06;5023228;28;20060;-69
2023/09/10 04:13:51;;;;;;;65.00;25.50;;;;;;;15.85;59.06;101788.00;5025590;28;20124;-68
2023/09/10 04:16:17;;;;;;;68.40;26.70;;;;;;;15.93;59.32;101791.13;5024543;28;20091;-68
2023/09/10 04:18:43;;;;;;;57.30;25.52;;;;;;;16.06;59.08;101787.91;5026386;28;20037;-68
2023/09/10 04:21:08;;;;;;;61.20;25.52;;;;;;;16.15;57.95;101790.09;5021062;28;20033;-69
2023/09/10 04:23:34;;;;;;;57.72;24.08;;;;;;;16.10;58.32;101792.13;5009362;28;20044;-69
2023/09/10 04:26:01;;;;;;;58.03;27.40;;;;;;;16.06;58.41;101791.41;5013738;28;20056;-72
2023/09/10 04:28:26;;;;;;;52.63;24.60;;;;;;;16.10;58.45;101787.69;5043383;28;20080;-68
2023/09/10 04:30:52;;;;;;;55.95;26.33;;;;;;;16.03;58.38;101783.66;5041536;28;20098;-69
2023/09/10 04:33:18;;;;;;;63.45;29.45;;;;;;;15.98;58.65;101785.63;5022332;28;20710;-69
2023/09/10 04:35:50;;;;;;;57.55;25.70;;;;;;;16.03;58.78;101790.72;5042935;28;20036;-66
2023/09/10 04:38:17;;;;;;;60.20;26.98;;;;;;;16.04;58.64;101787.13;5024258;28;20045;-67
2023/09/10 04:40:42;;;;;;;55.85;25.02;;;;;;;16.13;58.25;101784.03;5024339;28;20024;-66
2023/09/10 04:43:08;;;;;;;61.17;27.08;;;;;;;16.24;58.13;101788.78;5019829;28;20056;-67
2023/09/10 04:45:33;;;;;;;52.00;26.13;;;;;;;16.28;58.12;101785.94;5023263;28;20040;-71
2023/09/10 04:47:59;;;;;;;53.80;26.60;;;;;;;16.40;57.73;101790.59;5041102;28;20048;-68
2023/09/10 04:50:25;;;;;;;59.10;26.38;;;;;;;16.36;57.44;101788.19;5040768;28;20039;-71
2023/09/10 04:52:52;;;;;;;59.40;24.90;;;;;;;16.36;57.61;101789.03;5039611;28;20036;-71
2023/09/10 04:55:17;;;;;;;59.75;28.52;;;;;;;16.44;57.45;101787.81;5021499;28;20036;-70
2023/09/10 04:57:43;;;;;;;53.53;26.85;;;;;;;16.31;57.38;101791.06;5025989;28;20083;-69
2023/09/10 05:00:09;;;;;;;53.65;26.73;;;;;;;16.37;57.58;101796.00;5021763;28;20617;-68
2023/09/10 05:02:35;;;;;;;58.38;27.00;;;;;;;16.41;57.64;101791.44;5022177;28;20045;-71
2023/09/10 05:05:00;;;;;;;58.55;29.27;;;;;;;16.35;57.42;101789.13;5022813;28;20095;-74
2023/09/10 05:07:26;;;;;;;53.20;29.13;;;;;;;16.36;57.94;101793.47;5028734;28;20029;-73
2023/09/10 05:09:51;;;;;;;63.78;30.50;;;;;;;16.38;57.35;101800.38;5023589;28;20109;-70
2023/09/10 05:12:17;;;;;;;50.30;29.13;;;;;;;16.39;57.67;101799.44;5023070;28;20618;-66
2023/09/10 05:14:42;;;;;;;49.67;29.63;;;;;;;16.40;57.77;101806.44;5037255;28;20530;-67
2023/09/10 05:17:08;;;;;;;52.78;25.23;;;;;;;16.53;57.83;101811.09;5021279;28;20040;-68
2023/09/10 05:19:34;;;;;;;58.22;28.95;;;;;;;16.60;57.21;101815.13;5039056;28;20056;-67
2023/09/10 05:21:59;;;;;;;55.35;27.75;;;;;;;16.63;57.24;101809.69;5036135;28;20036;-66
2023/09/10 05:24:25;;;;;;;56.65;29.30;;;;;;;16.58;56.99;101815.22;5021954;28;20041;-66
2023/09/10 05:26:51;;;;;;;57.85;29.50;;;;;;;16.61;57.29;101815.03;5024021;28;20525;-73
2023/09/10 05:29:16;;;;;;;59.70;30.10;;;;;;;16.55;56.91;101814.50;5023903;28;20285;-68
2023/09/10 05:31:44;;;;;;;51.90;26.67;;;;;;;16.66;57.38;101822.72;5037727;28;20032;-71
2023/09/10 05:34:09;;;;;;;55.15;28.08;;;;;;;16.82;56.57;101823.69;5020866;28;20052;-72
2023/09/10 05:36:35;;;;;;;55.00;30.48;;;;;;;16.65;56.55;101823.66;5022429;28;20536;-69
2023/09/10 05:39:01;;;;;;;51.22;28.50;;;;;;;16.67;57.28;101835.00;5021333;28;20049;-69
2023/09/10 05:41:27;;;;;;;56.35;30.58;;;;;;;16.62;56.59;101826.44;5020060;28;20123;-69
2023/09/10 05:43:52;;;;;;;53.60;28.35;;;;;;;16.60;56.97;101831.81;5003883;28;20043;-69
2023/09/10 05:46:18;;;;;;;58.17;30.20;;;;;;;16.63;56.78;101831.66;5025387;28;20043;-68
2023/09/10 05:48:44;;;;;;;56.83;29.17;;;;;;;16.69;56.67;101832.25;5003905;28;20669;-69
2023/09/10 05:51:10;;;;;;;54.20;28.15;;;;;;;16.65;56.68;101836.03;5025029;28;20576;-74
2023/09/10 05:53:35;;;;;;;42.47;24.42;;;;;;;16.76;56.54;101825.81;5040335;28;20101;-72
2023/09/10 05:56:04;;;;;;;57.42;29.30;;;;;;;16.66;55.98;101829.78;5022015;28;20021;-71
2023/09/10 05:58:31;;;;;;;57.92;28.05;;;;;;;16.91;55.55;101839.97;5025739;28;20318;-68
2023/09/10 06:00:57;;;;;;;53.03;28.15;;;;;;;16.85;55.79;101837.69;5027278;28;20043;-70
2023/09/10 06:03:23;;;;;;;56.20;29.27;;;;;;;17.02;55.64;101841.16;5037550;28;20044;-69
2023/09/10 06:05:49;;;;;;;50.97;27.30;;;;;;;16.92;55.52;101839.06;5003497;28;20036;-68
2023/09/10 06:08:15;;;;;;;50.53;26.70;;;;;;;17.00;55.92;101831.56;5015872;28;20049;-69
2023/09/10 06:10:40;;;;;;;56.72;29.85;;;;;;;17.07;55.36;101837.38;5018283;28;20025;-69
2023/09/10 06:13:06;;;;;;;52.05;28.50;;;;;;;17.03;55.13;101844.63;5021847;28;20049;-68
2023/09/10 06:15:32;;;;;;;56.88;29.30;;;;;;;16.94;54.90;101839.84;5021718;28;20025;-69
2023/09/10 06:18:00;;;;;;;54.63;29.20;;;;;;;16.85;55.67;101838.53;5034254;28;20066;-70
2023/09/10 06:20:26;;;;;;;51.00;25.83;;;;;;;16.79;55.94;101849.38;5025140;28;20028;-70
2023/09/10 06:22:52;;;;;;;46.13;27.40;;;;;;;16.97;55.91;101852.88;5020242;28;20063;-73
2023/09/10 06:25:19;;;;;;;45.83;27.38;;;;;;;17.13;55.20;101853.78;5018382;28;20037;-71
2023/09/10 06:27:45;;;;;;;58.50;29.15;;;;;;;17.27;54.70;101862.75;5018233;28;20036;-72
2023/09/10 06:30:11;;;;;;;49.70;27.13;;;;;;;17.23;53.68;101864.72;5018624;28;20037;-71
2023/09/10 06:32:36;;;;;;;42.28;25.30;;;;;;;17.29;54.18;101871.47;5018760;28;20048;-71
2023/09/10 06:35:02;;;;;;;46.70;26.70;;;;;;;17.20;54.43;101864.88;5021642;28;20029;-70
2023/09/10 06:37:28;;;;;;;56.58;27.65;;;;;;;17.29;54.50;101869.69;5022911;28;20628;-73
2023/09/10 06:39:53;;;;;;;53.38;27.27;;;;;;;17.31;54.74;101869.59;5033874;28;20048;-71
2023/09/10 06:42:19;;;;;;;46.78;26.55;;;;;;;17.41;54.81;101878.75;5033885;28;20040;-72
2023/09/10 06:45:00;;;;;;;51.70;28.27;;;;;;;17.45;54.29;101869.72;5006386;28;20029;-69
2023/09/10 06:47:27;;;;;;;48.05;26.23;;;;;;;17.59;54.11;101872.50;5018528;28;20497;-70
2023/09/10 06:49:52;;;;;;;47.72;27.30;;;;;;;17.65;53.36;101872.19;5018834;28;20033;-70
2023/09/10 06:52:18;;;;;;;40.47;24.33;;;;;;;17.68;53.48;101878.25;5018808;28;20819;-68
2023/09/10 06:54:44;;;;;;;48.92;25.60;;;;;;;18.02;52.83;101883.34;5020066;28;20064;-68
2023/09/10 06:57:09;;;;;;;49.15;25.52;;;;;;;18.17;53.00;101873.72;5017818;28;20040;-69
2023/09/10 06:59:35;;;;;;;47.08;26.85;;;;;;;18.20;52.36;101872.72;5020570;28;20143;-70
2023/09/10 07:02:00;;;;;;;50.28;28.02;;;;;;;18.22;51.71;101876.13;5017556;28;20124;-69
2023/09/10 07:04:27;;;;;;;48.33;27.17;;;;;;;18.06;51.68;101882.25;5018222;28;20048;-69
2023/09/10 07:06:53;;;;;;;52.03;26.15;;;;;;;17.84;51.94;101884.38;5016334;28;20252;-70
2023/09/10 07:09:21;;;;;;;49.88;28.17;;;;;;;17.70;52.55;101881.66;5015160;28;20049;-69
2023/09/10 07:11:51;;;;;;;51.13;27.67;;;;;;;17.78;53.17;101887.34;5017125;28;20033;-70
2023/09/10 07:14:18;;;;;;;40.60;24.67;;;;;;;18.51;52.59;101892.13;5017293;28;20044;-69
2023/09/10 07:16:44;;;;;;;39.30;22.88;;;;;;;19.49;49.37;101891.59;5021166;28;20033;-68
2023/09/10 07:19:11;;;;;;;42.78;23.70;;;;;;;19.95;47.49;101885.22;5023256;28;20048;-68
2023/09/10 07:21:36;;;;;;;39.65;22.67;;;;;;;20.01;46.83;101888.31;5019828;28;20646;-69
2023/09/10 07:24:06;;;;;;;41.50;24.05;;;;;;;19.58;47.27;101903.47;5019297;28;20064;-69
2023/09/10 07:26:38;;;;;;;44.90;24.58;;;;;;;19.08;48.61;101897.63;5022234;28;20041;-68
2023/09/10 07:29:05;;;;;;;38.15;23.23;;;;;;;18.94;49.73;101894.94;5020137;28;20418;-69
2023/09/10 07:31:33;;;;;;;40.10;22.90;;;;;;;19.34;47.11;101890.72;5021375;28;20576;-69
2023/09/10 07:33:59;;;;;;;34.78;21.23;;;;;;;19.68;47.64;101886.88;5017751;28;20056;-69
2023/09/10 07:36:25;;;;;;;30.55;19.17;;;;;;;19.92;46.60;101900.38;5018778;28;20556;-69
2023/09/10 07:38:50;;;;;;;36.85;21.92;;;;;;;19.91;44.98;101898.69;5016577;28;20041;-69
2023/09/10 07:41:16;;;;;;;40.55;22.98;;;;;;;19.86;46.38;101900.78;5018617;28;20526;-69
2023/09/10 07:43:41;;;;;;;41.40;22.17;;;;;;;20.11;45.70;101900.06;5033205;28;20040;-69
2023/09/10 07:46:07;;;;;;;33.05;20.33;;;;;;;20.57;45.18;101901.53;5020331;28;20063;-69
2023/09/10 07:48:32;;;;;;;30.27;18.65;;;;;;;21.23;43.37;101899.75;5017562;28;20053;-69
2023/09/10 07:50:59;;;;;;;31.25;20.30;;;;;;;21.98;41.89;101886.44;5020731;28;20064;-69
2023/09/10 07:53:25;;;;;;;35.53;21.42;;;;;;;22.43;41.01;101891.19;5012623;28;20045;-69
2023/09/10 07:55:51;;;;;;;38.03;21.33;;;;;;;23.34;40.14;101893.13;5018953;28;20029;-70
2023/09/10 07:58:18;;;;;;;36.45;20.38;;;;;;;24.48;36.27;101888.44;5015724;28;20046;-69
2023/09/10 08:00:43;;;;;;;31.90;17.92;;;;;;;25.85;34.21;101880.16;5020016;28;20040;-69
2023/09/10 08:03:09;;;;;;;31.80;19.83;;;;;;;26.12;33.95;101887.56;5018164;28;20049;-69
2023/09/10 08:05:35;;;;;;;31.58;20.30;;;;;;;26.22;33.34;101888.44;5018070;28;20060;-69
2023/09/10 08:08:04;;;;;;;35.70;20.20;;;;;;;26.08;33.28;101886.16;5019983;28;20076;-69
2023/09/10 08:10:31;;;;;;;32.63;20.40;;;;;;;26.03;33.48;101888.38;5018964;28;20037;-69
2023/09/10 08:12:57;;;;;;;32.92;19.42;;;;;;;27.07;31.48;101886.78;5030858;28;20034;-69
2023/09/10 08:15:22;;;;;;;24.92;15.63;;;;;;;28.39;29.71;101882.91;5040103;28;20033;-70
2023/09/10 08:17:51;;;;;;;32.80;18.83;;;;;;;29.20;28.18;101887.22;5038203;28;20067;-70
2023/09/10 08:20:17;;;;;;;35.33;18.67;;;;;;;27.66;30.30;101881.19;5021377;28;20222;-70
2023/09/10 08:22:45;;;;;;;30.10;19.13;;;;;;;27.71;32.47;101886.94;5056033;28;20096;-70
2023/09/10 08:25:11;;;;;;;30.88;20.35;;;;;;;27.69;31.46;101884.41;5034112;28;20033;-70
2023/09/10 08:27:37;;;;;;;33.95;21.92;;;;;;;27.52;31.30;101886.03;5037714;28;20045;-70
2023/09/10 08:30:05;;;;;;;32.78;19.27;;;;;;;27.93;29.80;101891.06;5027214;28;20330;-71
2023/09/10 08:32:37;;;;;;;34.42;22.83;;;;;;;27.68;30.45;101888.09;5025496;28;20060;-70
2023/09/10 08:35:04;;;;;;;27.38;18.58;;;;;;;27.93;30.82;101894.56;5026906;28;20549;-69
2023/09/10 08:37:30;;;;;;;31.02;20.23;;;;;;;27.64;31.38;101885.88;5018710;28;20715;-69
2023/09/10 08:40:02;;;;;;;32.35;20.60;;;;;;;26.93;33.17;101889.91;5037026;28;20108;-70
2023/09/10 08:42:46;;;;;;;29.10;17.20;;;;;;;27.00;33.80;101888.31;5014191;28;20037;-70
2023/09/10 08:45:13;;;;;;;31.02;18.98;;;;;;;26.67;31.94;101887.84;5019395;28;20044;-70
2023/09/10 08:47:43;;;;;;;36.42;21.02;;;;;;;26.16;33.54;101888.97;5019284;28;20041;-70
2023/09/10 08:50:11;;;;;;;34.55;19.00;;;;;;;25.98;33.79;101890.63;5022830;28;20041;-70
2023/09/10 08:52:43;;;;;;;38.17;22.45;;;;;;;26.19;33.77;101894.03;5017796;28;20068;-69
2023/09/10 08:55:17;;;;;;;32.33;20.33;;;;;;;26.23;34.46;101906.19;5022013;28;20135;-69
2023/09/10 08:57:53;;;;;;;31.23;20.30;;;;;;;25.43;35.54;101907.06;4983893;28;20052;-69
2023/09/10 09:00:24;;;;;;;31.67;20.58;;;;;;;24.73;37.42;101904.13;5021128;28;20034;-69
2023/09/10 09:02:55;;;;;;;;;;;;;;;25.21;35.27;101902.72;5014039;28;20630;-69
2023/09/10 09:05:27;;;;;;;30.35;19.00;;;;;;;25.68;34.14;101905.75;5026841;28;20538;-69
2023/09/10 09:08:28;;;;;;;;;;;;;;;;;;;;;
2023/09/10 09:11:17;;;;;;;30.88;18.02;;;;;;;25.27;35.83;101902.22;5019453;28;20124;-69
2023/09/10 09:13:59;;;;;;;27.75;17.27;;;;;;;25.74;35.39;101905.22;5005578;28;20040;-70
2023/09/10 09:16:42;;;;;;;28.65;18.85;;;;;;;25.96;34.66;101903.31;5019535;28;20029;-69
2023/09/10 09:19:28;;;;;;;28.98;18.48;;;;;;;25.60;34.90;101909.13;5000731;28;20050;-69
2023/09/10 09:21:59;;;;;;;29.50;19.92;;;;;;;24.86;36.36;101909.25;5020680;28;20112;-69
2023/09/10 09:24:43;;;;;;;30.08;17.80;;;;;;;24.84;36.93;101898.72;4992221;28;20040;-69
2023/09/10 09:27:17;;;;;;;23.70;15.02;;;;;;;24.82;38.04;101905.16;5020897;28;20044;-69
2023/09/10 09:29:46;;;;;;;27.58;18.20;;;;;;;25.32;36.32;101905.31;5019119;28;20032;-69
2023/09/10 09:32:39;;;;;;;27.42;19.63;;;;;;;25.73;34.97;101902.69;5007119;28;20504;-70
2023/09/10 09:35:28;;;;;;;;;;;;;;;;;;;;;
2023/09/10 09:38:09;;;;;;;29.75;19.50;;;;;;;25.72;34.48;101896.47;4995004;28;20486;-69
2023/09/10 09:43:44;;;;;;;;;;;;;;;;;;;;;
2023/09/10 09:46:20;;;;;;;32.92;20.35;;;;;;;26.31;34.86;101886.72;5012780;28;20111;-70
2023/09/10 09:49:05;;;;;;;26.50;16.95;;;;;;;26.57;34.43;101881.63;4994640;28;20049;-69
2023/09/10 09:51:40;;;;;;;25.88;16.90;;;;;;;26.76;33.65;101882.59;5012843;28;20144;-69
2023/09/10 09:54:39;;;;;;;26.17;17.77;;;;;;;26.24;34.54;101875.72;5021790;28;20041;-69
2023/09/10 09:57:39;;;;;;;26.50;17.65;;;;;;;26.39;33.61;101880.66;4993871;28;20043;-68
2023/09/10 10:00:16;;;;;;;27.17;17.88;;;;;;;26.46;34.06;101879.09;5029668;28;20044;-68
2023/09/10 10:02:49;;;;;;;;;;;;;;;26.17;33.87;101871.91;4999135;28;20052;-68
2023/09/10 10:05:20;;;;;;;31.05;18.63;;;;;;;25.79;34.75;101880.72;5025936;28;19920;-71
2023/09/10 10:08:05;;;;;;;29.05;18.50;;;;;;;26.29;35.14;101862.75;5004376;28;20514;-70
2023/09/10 10:10:47;;;;;;;25.73;17.23;;;;;;;27.01;35.66;101875.78;5012787;28;20125;-68
2023/09/10 10:13:39;;;;;;;24.60;16.83;;;;;;;27.32;33.49;101871.03;4987905;28;20072;-67
2023/09/10 10:16:24;;;;;;;24.75;17.30;;;;;;;26.81;33.22;101877.66;5013692;28;20033;-67
2023/09/10 10:18:56;;;;;;;30.83;16.63;;;;;;;26.29;34.13;101872.63;5001015;28;20056;-68
2023/09/10 10:21:53;;;;;;;27.00;17.67;;;;;;;25.90;36.09;101866.38;5016164;28;20037;-69
2023/09/10 10:24:22;;;;;;;28.40;18.58;;;;;;;26.11;35.09;101860.91;5001044;28;20095;-68
2023/09/10 10:26:51;;;;;;;23.27;16.77;;;;;;;26.76;34.80;101864.69;5018388;28;20084;-69
2023/09/10 10:29:22;;;;;;;24.67;16.83;;;;;;;26.60;35.52;101864.44;5021063;28;20071;-69
2023/09/10 10:32:02;;;;;;;20.48;14.25;;;;;;;26.66;34.99;101859.34;5015867;28;20064;-68
2023/09/10 10:34:39;;;;;;;15.63;11.68;;;;;;;27.67;33.31;101858.69;5016656;28;20041;-68
2023/09/10 10:37:15;;;;;;;25.13;14.75;;;;;;;27.30;34.42;101851.53;5020453;28;20099;-68
2023/09/10 10:40:12;;;;;;;24.02;13.73;;;;;;;27.27;35.10;101852.69;5034169;28;20474;-68
2023/09/10 10:42:54;;;;;;;21.83;13.75;;;;;;;27.06;35.49;101854.72;5013947;28;20127;-69
2023/09/10 10:45:19;;;;;;;19.83;13.98;;;;;;;27.18;35.65;101853.56;5015933;28;20128;-70
2023/09/10 10:47:47;;;;;;;25.73;15.50;;;;;;;27.14;33.87;101854.00;5025610;28;20433;-68
2023/09/10 10:50:25;;;;;;;21.80;16.27;;;;;;;27.34;33.88;101858.31;5004497;28;20772;-70
2023/09/10 10:53:09;;;;;;;27.60;16.13;;;;;;;26.82;35.41;101856.03;5013150;28;20075;-70
2023/09/10 10:55:35;;;;;;;22.63;14.55;;;;;;;26.93;35.08;101848.84;5017585;28;20207;-70
2023/09/10 10:58:01;;;;;;;22.00;15.10;;;;;;;26.54;36.36;101854.28;5018566;28;20055;-70
2023/09/10 11:00:30;;;;;;;26.23;16.23;;;;;;;26.61;35.94;101848.22;5032627;28;20033;-69
2023/09/10 11:03:14;;;;;;;28.00;15.80;;;;;;;27.18;34.31;101842.81;5011014;28;20795;-70
2023/09/10 11:05:52;;;;;;;25.92;16.08;;;;;;;27.00;34.64;101834.66;5014268;28;20071;-70
2023/09/10 11:08:28;;;;;;;24.80;15.93;;;;;;;26.77;34.67;101839.56;5016943;28;20049;-70
2023/09/10 11:10:54;;;;;;;20.50;15.20;;;;;;;27.45;34.61;101833.06;5018159;28;20033;-70
2023/09/10 11:13:19;;;;;;;21.83;15.13;;;;;;;27.48;34.10;101839.00;5015789;28;20084;-70
2023/09/10 11:16:03;;;;;;;21.73;14.70;;;;;;;27.23;35.04;101834.34;5019784;28;20124;-70
2023/09/10 11:18:34;;;;;;;24.95;15.93;;;;;;;27.62;34.29;101834.16;5036617;28;20121;-69
2023/09/10 11:21:11;;;;;;;23.65;15.13;;;;;;;26.93;36.92;101830.91;5015021;28;20029;-70
2023/09/10 11:24:01;;;;;;;22.23;13.68;;;;;;;27.32;33.94;101830.78;4999996;28;21090;-70
2023/09/10 11:26:26;;;;;;;19.92;12.32;;;;;;;27.95;33.34;101831.81;5017044;28;20581;-70